sensor_id;sensor_type;location;lat;lon;timestamp;P1;durP1;ratioP1;P2;durP2;ratioP2
51732;SDS011;39139;53.144;6.244;2023-02-23T00:01:26;131.75;;;66.13;;
51732;SDS011;39139;53.144;6.244;2023-02-23T00:03:53;135.13;;;70.47;;
51732;SDS011;39139;53.144;6.244;2023-02-23T00:06:23;128.63;;;68.35;;
51732;SDS011;39139;53.144;6.244;2023-02-23T00:08:51;136.98;;;68.18;;
51732;SDS011;39139;53.144;6.244;2023-02-23T00:11:18;136.55;;;69.82;;
51732;SDS011;39139;53.144;6.244;2023-02-23T00:13:45;142.38;;;68.28;;
51732;SDS011;39139;53.144;6.244;2023-02-23T00:16:21;146.53;;;70.10;;
51732;SDS011;39139;53.144;6.244;2023-02-23T00:18:49;131.02;;;69.10;;
51732;SDS011;39139;53.144;6.244;2023-02-23T00:21:24;136.52;;;69.38;;
51732;SDS011;39139;53.144;6.244;2023-02-23T00:23:56;127.95;;;67.78;;
51732;SDS011;39139;53.144;6.244;2023-02-23T00:26:25;126.95;;;67.78;;
51732;SDS011;39139;53.144;6.244;2023-02-23T00:28:55;127.32;;;68.35;;
51732;SDS011;39139;53.144;6.244;2023-02-23T00:31:22;136.50;;;70.05;;
51732;SDS011;39139;53.144;6.244;2023-02-23T00:33:59;128.00;;;67.90;;
51732;SDS011;39139;53.144;6.244;2023-02-23T00:36:28;139.63;;;70.10;;
51732;SDS011;39139;53.144;6.244;2023-02-23T00:38:59;139.38;;;71.63;;
51732;SDS011;39139;53.144;6.244;2023-02-23T00:41:27;131.63;;;68.22;;
51732;SDS011;39139;53.144;6.244;2023-02-23T00:43:54;131.40;;;67.78;;
51732;SDS011;39139;53.144;6.244;2023-02-23T00:46:22;132.13;;;69.05;;
51732;SDS011;39139;53.144;6.244;2023-02-23T00:48:49;138.35;;;70.28;;
51732;SDS011;39139;53.144;6.244;2023-02-23T00:51:15;128.02;;;65.55;;
51732;SDS011;39139;53.144;6.244;2023-02-23T00:53:42;143.02;;;72.43;;
51732;SDS011;39139;53.144;6.244;2023-02-23T00:56:09;133.60;;;68.38;;
51732;SDS011;39139;53.144;6.244;2023-02-23T00:58:36;143.43;;;70.70;;
51732;SDS011;39139;53.144;6.244;2023-02-23T01:01:06;130.13;;;69.35;;
51732;SDS011;39139;53.144;6.244;2023-02-23T01:03:33;138.25;;;70.05;;
51732;SDS011;39139;53.144;6.244;2023-02-23T01:06:00;124.22;;;65.65;;
51732;SDS011;39139;53.144;6.244;2023-02-23T01:08:33;140.23;;;69.45;;
51732;SDS011;39139;53.144;6.244;2023-02-23T01:13:40;126.40;;;65.88;;
51732;SDS011;39139;53.144;6.244;2023-02-23T01:16:08;125.88;;;63.60;;
51732;SDS011;39139;53.144;6.244;2023-02-23T01:18:36;132.30;;;66.75;;
51732;SDS011;39139;53.144;6.244;2023-02-23T01:21:03;125.55;;;63.88;;
51732;SDS011;39139;53.144;6.244;2023-02-23T01:23:30;132.82;;;66.30;;
51732;SDS011;39139;53.144;6.244;2023-02-23T01:25:56;131.07;;;67.05;;
51732;SDS011;39139;53.144;6.244;2023-02-23T01:28:22;129.75;;;65.70;;
51732;SDS011;39139;53.144;6.244;2023-02-23T01:30:47;131.63;;;64.50;;
51732;SDS011;39139;53.144;6.244;2023-02-23T01:33:13;139.90;;;66.45;;
51732;SDS011;39139;53.144;6.244;2023-02-23T01:35:39;126.50;;;64.82;;
51732;SDS011;39139;53.144;6.244;2023-02-23T01:38:05;122.18;;;63.45;;
51732;SDS011;39139;53.144;6.244;2023-02-23T01:40:31;131.93;;;65.78;;
51732;SDS011;39139;53.144;6.244;2023-02-23T01:43:20;126.70;;;62.50;;
51732;SDS011;39139;53.144;6.244;2023-02-23T01:45:50;125.78;;;60.22;;
51732;SDS011;39139;53.144;6.244;2023-02-23T01:48:26;132.13;;;63.38;;
51732;SDS011;39139;53.144;6.244;2023-02-23T01:53:30;136.85;;;64.38;;
51732;SDS011;39139;53.144;6.244;2023-02-23T01:56:04;132.20;;;65.50;;
51732;SDS011;39139;53.144;6.244;2023-02-23T01:58:36;134.10;;;64.20;;
51732;SDS011;39139;53.144;6.244;2023-02-23T02:01:05;128.70;;;64.13;;
51732;SDS011;39139;53.144;6.244;2023-02-23T02:03:33;134.30;;;63.33;;
51732;SDS011;39139;53.144;6.244;2023-02-23T02:06:04;134.80;;;63.22;;
51732;SDS011;39139;53.144;6.244;2023-02-23T02:08:34;125.28;;;65.95;;
51732;SDS011;39139;53.144;6.244;2023-02-23T02:11:12;138.70;;;63.58;;
51732;SDS011;39139;53.144;6.244;2023-02-23T02:14:01;131.15;;;63.75;;
51732;SDS011;39139;53.144;6.244;2023-02-23T02:16:36;129.93;;;63.05;;
51732;SDS011;39139;53.144;6.244;2023-02-23T02:19:19;126.32;;;61.35;;
51732;SDS011;39139;53.144;6.244;2023-02-23T02:41:33;126.22;;;60.65;;
51732;SDS011;39139;53.144;6.244;2023-02-23T02:47:11;130.63;;;59.92;;
51732;SDS011;39139;53.144;6.244;2023-02-23T02:49:49;120.22;;;59.83;;
51732;SDS011;39139;53.144;6.244;2023-02-23T02:52:19;125.05;;;60.20;;
51732;SDS011;39139;53.144;6.244;2023-02-23T02:55:00;136.00;;;61.78;;
51732;SDS011;39139;53.144;6.244;2023-02-23T02:57:33;133.18;;;61.28;;
51732;SDS011;39139;53.144;6.244;2023-02-23T03:00:00;129.60;;;61.78;;
51732;SDS011;39139;53.144;6.244;2023-02-23T03:02:44;133.93;;;61.70;;
51732;SDS011;39139;53.144;6.244;2023-02-23T03:05:33;140.13;;;62.65;;
51732;SDS011;39139;53.144;6.244;2023-02-23T03:11:39;137.85;;;63.28;;
51732;SDS011;39139;53.144;6.244;2023-02-23T03:17:45;139.27;;;62.65;;
51732;SDS011;39139;53.144;6.244;2023-02-23T03:23:27;138.05;;;61.20;;
51732;SDS011;39139;53.144;6.244;2023-02-23T03:26:29;142.98;;;62.10;;
51732;SDS011;39139;53.144;6.244;2023-02-23T03:29:20;133.10;;;61.65;;
51732;SDS011;39139;53.144;6.244;2023-02-23T03:35:20;141.38;;;63.13;;
51732;SDS011;39139;53.144;6.244;2023-02-23T03:38:33;144.90;;;63.60;;
51732;SDS011;39139;53.144;6.244;2023-02-23T03:41:23;136.80;;;62.08;;
51732;SDS011;39139;53.144;6.244;2023-02-23T03:44:12;144.60;;;60.33;;
51732;SDS011;39139;53.144;6.244;2023-02-23T03:47:02;137.25;;;60.40;;
51732;SDS011;39139;53.144;6.244;2023-02-23T03:49:48;139.82;;;61.10;;
51732;SDS011;39139;53.144;6.244;2023-02-23T03:52:39;134.20;;;59.63;;
51732;SDS011;39139;53.144;6.244;2023-02-23T03:55:31;138.70;;;60.30;;
51732;SDS011;39139;53.144;6.244;2023-02-23T03:58:22;132.98;;;58.92;;
51732;SDS011;39139;53.144;6.244;2023-02-23T04:01:16;108.82;;;50.45;;
51732;SDS011;39139;53.144;6.244;2023-02-23T04:04:03;93.40;;;44.30;;
51732;SDS011;39139;53.144;6.244;2023-02-23T04:06:50;94.95;;;42.28;;
51732;SDS011;39139;53.144;6.244;2023-02-23T04:09:38;94.15;;;42.90;;
51732;SDS011;39139;53.144;6.244;2023-02-23T04:12:28;94.43;;;43.47;;
51732;SDS011;39139;53.144;6.244;2023-02-23T04:15:26;93.60;;;44.30;;
51732;SDS011;39139;53.144;6.244;2023-02-23T04:17:56;103.50;;;47.40;;
51732;SDS011;39139;53.144;6.244;2023-02-23T04:20:22;111.40;;;50.10;;
51732;SDS011;39139;53.144;6.244;2023-02-23T04:22:51;109.68;;;50.95;;
51732;SDS011;39139;53.144;6.244;2023-02-23T04:25:16;113.18;;;52.08;;
51732;SDS011;39139;53.144;6.244;2023-02-23T04:27:47;120.45;;;53.45;;
51732;SDS011;39139;53.144;6.244;2023-02-23T04:30:13;115.40;;;52.10;;
51732;SDS011;39139;53.144;6.244;2023-02-23T04:32:39;105.60;;;50.47;;
51732;SDS011;39139;53.144;6.244;2023-02-23T04:35:05;113.53;;;52.03;;
51732;SDS011;39139;53.144;6.244;2023-02-23T04:37:31;114.18;;;50.83;;
51732;SDS011;39139;53.144;6.244;2023-02-23T04:39:56;101.35;;;48.83;;
51732;SDS011;39139;53.144;6.244;2023-02-23T04:42:22;106.10;;;48.10;;
51732;SDS011;39139;53.144;6.244;2023-02-23T04:44:48;91.28;;;42.40;;
51732;SDS011;39139;53.144;6.244;2023-02-23T04:47:14;84.55;;;42.10;;
51732;SDS011;39139;53.144;6.244;2023-02-23T04:49:41;103.60;;;45.78;;
51732;SDS011;39139;53.144;6.244;2023-02-23T04:52:07;106.43;;;48.28;;
51732;SDS011;39139;53.144;6.244;2023-02-23T04:54:36;98.88;;;44.95;;
51732;SDS011;39139;53.144;6.244;2023-02-23T04:57:03;90.63;;;41.97;;
51732;SDS011;39139;53.144;6.244;2023-02-23T04:59:29;87.68;;;43.60;;
51732;SDS011;39139;53.144;6.244;2023-02-23T05:01:55;85.20;;;40.95;;
51732;SDS011;39139;53.144;6.244;2023-02-23T05:04:21;89.40;;;43.17;;
51732;SDS011;39139;53.144;6.244;2023-02-23T05:06:46;89.80;;;44.05;;
51732;SDS011;39139;53.144;6.244;2023-02-23T05:09:12;90.47;;;43.38;;
51732;SDS011;39139;53.144;6.244;2023-02-23T05:11:38;93.22;;;44.33;;
51732;SDS011;39139;53.144;6.244;2023-02-23T05:14:04;93.72;;;44.13;;
51732;SDS011;39139;53.144;6.244;2023-02-23T05:16:30;94.53;;;46.05;;
51732;SDS011;39139;53.144;6.244;2023-02-23T05:18:55;90.43;;;44.15;;
51732;SDS011;39139;53.144;6.244;2023-02-23T05:21:21;96.18;;;43.30;;
51732;SDS011;39139;53.144;6.244;2023-02-23T05:23:47;93.15;;;44.70;;
51732;SDS011;39139;53.144;6.244;2023-02-23T05:26:13;97.90;;;45.40;;
51732;SDS011;39139;53.144;6.244;2023-02-23T05:28:40;89.00;;;42.83;;
51732;SDS011;39139;53.144;6.244;2023-02-23T05:31:06;88.25;;;42.08;;
51732;SDS011;39139;53.144;6.244;2023-02-23T05:33:32;91.45;;;44.92;;
51732;SDS011;39139;53.144;6.244;2023-02-23T05:35:59;92.53;;;43.88;;
51732;SDS011;39139;53.144;6.244;2023-02-23T05:38:25;95.93;;;45.25;;
51732;SDS011;39139;53.144;6.244;2023-02-23T05:40:51;94.93;;;44.78;;
51732;SDS011;39139;53.144;6.244;2023-02-23T05:43:17;88.95;;;44.45;;
51732;SDS011;39139;53.144;6.244;2023-02-23T05:45:43;89.47;;;44.72;;
51732;SDS011;39139;53.144;6.244;2023-02-23T05:48:09;97.55;;;45.22;;
51732;SDS011;39139;53.144;6.244;2023-02-23T05:50:36;94.28;;;44.40;;
51732;SDS011;39139;53.144;6.244;2023-02-23T05:53:01;94.80;;;46.08;;
51732;SDS011;39139;53.144;6.244;2023-02-23T05:55:27;89.85;;;45.75;;
51732;SDS011;39139;53.144;6.244;2023-02-23T05:57:53;96.03;;;45.05;;
51732;SDS011;39139;53.144;6.244;2023-02-23T06:00:19;96.60;;;46.10;;
51732;SDS011;39139;53.144;6.244;2023-02-23T06:02:46;96.90;;;46.40;;
51732;SDS011;39139;53.144;6.244;2023-02-23T06:05:12;94.45;;;46.30;;
51732;SDS011;39139;53.144;6.244;2023-02-23T06:07:38;92.40;;;45.33;;
51732;SDS011;39139;53.144;6.244;2023-02-23T06:10:05;87.72;;;44.28;;
51732;SDS011;39139;53.144;6.244;2023-02-23T06:12:31;82.40;;;42.67;;
51732;SDS011;39139;53.144;6.244;2023-02-23T06:14:57;86.13;;;44.10;;
51732;SDS011;39139;53.144;6.244;2023-02-23T06:17:23;82.70;;;43.97;;
51732;SDS011;39139;53.144;6.244;2023-02-23T06:19:49;89.03;;;44.30;;
51732;SDS011;39139;53.144;6.244;2023-02-23T06:22:15;86.28;;;42.67;;
51732;SDS011;39139;53.144;6.244;2023-02-23T06:24:43;83.93;;;43.27;;
51732;SDS011;39139;53.144;6.244;2023-02-23T06:27:09;83.57;;;42.55;;
51732;SDS011;39139;53.144;6.244;2023-02-23T06:29:36;78.93;;;42.17;;
51732;SDS011;39139;53.144;6.244;2023-02-23T06:32:02;78.32;;;41.67;;
51732;SDS011;39139;53.144;6.244;2023-02-23T06:34:28;78.32;;;39.90;;
51732;SDS011;39139;53.144;6.244;2023-02-23T06:36:54;83.18;;;42.70;;
51732;SDS011;39139;53.144;6.244;2023-02-23T06:39:20;76.15;;;40.92;;
51732;SDS011;39139;53.144;6.244;2023-02-23T06:41:45;80.80;;;40.50;;
51732;SDS011;39139;53.144;6.244;2023-02-23T06:44:11;73.18;;;39.25;;
51732;SDS011;39139;53.144;6.244;2023-02-23T06:46:37;78.82;;;40.20;;
51732;SDS011;39139;53.144;6.244;2023-02-23T06:49:03;77.32;;;41.58;;
51732;SDS011;39139;53.144;6.244;2023-02-23T06:51:29;78.28;;;41.63;;
51732;SDS011;39139;53.144;6.244;2023-02-23T06:53:54;82.07;;;42.03;;
51732;SDS011;39139;53.144;6.244;2023-02-23T06:56:20;70.15;;;39.33;;
51732;SDS011;39139;53.144;6.244;2023-02-23T06:58:46;74.95;;;39.17;;
51732;SDS011;39139;53.144;6.244;2023-02-23T07:01:13;80.57;;;41.45;;
51732;SDS011;39139;53.144;6.244;2023-02-23T07:03:40;76.40;;;41.03;;
51732;SDS011;39139;53.144;6.244;2023-02-23T07:06:06;71.88;;;39.47;;
51732;SDS011;39139;53.144;6.244;2023-02-23T07:08:32;73.53;;;37.40;;
51732;SDS011;39139;53.144;6.244;2023-02-23T07:11:05;75.63;;;38.92;;
51732;SDS011;39139;53.144;6.244;2023-02-23T07:13:32;76.43;;;39.28;;
51732;SDS011;39139;53.144;6.244;2023-02-23T07:15:58;75.95;;;39.83;;
51732;SDS011;39139;53.144;6.244;2023-02-23T07:18:23;72.53;;;39.42;;
51732;SDS011;39139;53.144;6.244;2023-02-23T07:20:49;75.15;;;39.90;;
51732;SDS011;39139;53.144;6.244;2023-02-23T07:23:16;80.68;;;41.95;;
51732;SDS011;39139;53.144;6.244;2023-02-23T07:25:42;82.40;;;42.67;;
51732;SDS011;39139;53.144;6.244;2023-02-23T07:28:08;76.40;;;39.90;;
51732;SDS011;39139;53.144;6.244;2023-02-23T07:30:34;71.30;;;39.83;;
51732;SDS011;39139;53.144;6.244;2023-02-23T07:33:00;70.07;;;39.13;;
51732;SDS011;39139;53.144;6.244;2023-02-23T07:35:25;72.90;;;39.40;;
51732;SDS011;39139;53.144;6.244;2023-02-23T07:37:51;72.28;;;37.67;;
51732;SDS011;39139;53.144;6.244;2023-02-23T07:40:17;70.32;;;38.85;;
51732;SDS011;39139;53.144;6.244;2023-02-23T07:42:43;71.60;;;39.88;;
51732;SDS011;39139;53.144;6.244;2023-02-23T07:45:09;73.88;;;40.03;;
51732;SDS011;39139;53.144;6.244;2023-02-23T07:47:35;75.25;;;39.42;;
51732;SDS011;39139;53.144;6.244;2023-02-23T07:50:03;73.32;;;39.67;;
51732;SDS011;39139;53.144;6.244;2023-02-23T07:52:34;73.80;;;40.13;;
51732;SDS011;39139;53.144;6.244;2023-02-23T07:55:03;68.88;;;38.92;;
51732;SDS011;39139;53.144;6.244;2023-02-23T07:57:30;72.38;;;39.92;;
51732;SDS011;39139;53.144;6.244;2023-02-23T07:59:59;68.10;;;38.00;;
51732;SDS011;39139;53.144;6.244;2023-02-23T08:02:25;68.97;;;36.83;;
51732;SDS011;39139;53.144;6.244;2023-02-23T08:04:53;69.82;;;37.50;;
51732;SDS011;39139;53.144;6.244;2023-02-23T08:07:19;65.65;;;36.20;;
51732;SDS011;39139;53.144;6.244;2023-02-23T08:09:46;70.30;;;38.00;;
51732;SDS011;39139;53.144;6.244;2023-02-23T08:12:12;68.75;;;37.10;;
51732;SDS011;39139;53.144;6.244;2023-02-23T08:14:39;66.95;;;36.67;;
51732;SDS011;39139;53.144;6.244;2023-02-23T08:17:05;67.25;;;38.17;;
51732;SDS011;39139;53.144;6.244;2023-02-23T08:19:31;76.88;;;39.22;;
51732;SDS011;39139;53.144;6.244;2023-02-23T08:21:58;68.85;;;36.90;;
51732;SDS011;39139;53.144;6.244;2023-02-23T08:24:24;68.50;;;37.50;;
51732;SDS011;39139;53.144;6.244;2023-02-23T08:26:50;71.45;;;38.95;;
51732;SDS011;39139;53.144;6.244;2023-02-23T08:29:17;75.25;;;39.92;;
51732;SDS011;39139;53.144;6.244;2023-02-23T08:31:43;69.10;;;38.67;;
51732;SDS011;39139;53.144;6.244;2023-02-23T08:34:08;68.72;;;37.13;;
51732;SDS011;39139;53.144;6.244;2023-02-23T08:36:34;70.93;;;37.97;;
51732;SDS011;39139;53.144;6.244;2023-02-23T08:39:00;68.55;;;39.42;;
51732;SDS011;39139;53.144;6.244;2023-02-23T08:41:26;69.25;;;37.38;;
51732;SDS011;39139;53.144;6.244;2023-02-23T08:43:52;65.13;;;36.90;;
51732;SDS011;39139;53.144;6.244;2023-02-23T08:46:18;68.35;;;37.85;;
51732;SDS011;39139;53.144;6.244;2023-02-23T08:48:45;64.45;;;37.10;;
51732;SDS011;39139;53.144;6.244;2023-02-23T08:51:11;69.50;;;38.78;;
51732;SDS011;39139;53.144;6.244;2023-02-23T08:53:38;72.05;;;38.65;;
51732;SDS011;39139;53.144;6.244;2023-02-23T08:56:05;68.80;;;37.30;;
51732;SDS011;39139;53.144;6.244;2023-02-23T08:58:32;67.63;;;34.97;;
51732;SDS011;39139;53.144;6.244;2023-02-23T09:00:59;72.97;;;35.53;;
51732;SDS011;39139;53.144;6.244;2023-02-23T09:03:25;64.45;;;36.75;;
51732;SDS011;39139;53.144;6.244;2023-02-23T09:05:54;68.67;;;36.80;;
51732;SDS011;39139;53.144;6.244;2023-02-23T09:08:20;64.07;;;34.47;;
51732;SDS011;39139;53.144;6.244;2023-02-23T09:10:46;66.38;;;37.35;;
51732;SDS011;39139;53.144;6.244;2023-02-23T09:13:12;58.63;;;32.67;;
51732;SDS011;39139;53.144;6.244;2023-02-23T09:15:39;59.65;;;32.47;;
51732;SDS011;39139;53.144;6.244;2023-02-23T09:18:06;70.65;;;35.47;;
51732;SDS011;39139;53.144;6.244;2023-02-23T09:20:34;65.15;;;35.00;;
51732;SDS011;39139;53.144;6.244;2023-02-23T09:23:00;66.85;;;35.15;;
51732;SDS011;39139;53.144;6.244;2023-02-23T09:25:26;60.70;;;31.77;;
51732;SDS011;39139;53.144;6.244;2023-02-23T09:27:53;66.43;;;36.53;;
51732;SDS011;39139;53.144;6.244;2023-02-23T09:30:24;66.57;;;37.08;;
51732;SDS011;39139;53.144;6.244;2023-02-23T09:32:50;61.05;;;32.50;;
51732;SDS011;39139;53.144;6.244;2023-02-23T09:35:18;61.33;;;32.38;;
51732;SDS011;39139;53.144;6.244;2023-02-23T09:37:46;66.15;;;34.97;;
51732;SDS011;39139;53.144;6.244;2023-02-23T09:40:16;70.82;;;34.03;;
51732;SDS011;39139;53.144;6.244;2023-02-23T09:47:53;63.03;;;33.42;;
51732;SDS011;39139;53.144;6.244;2023-02-23T09:50:41;68.07;;;34.20;;
51732;SDS011;39139;53.144;6.244;2023-02-23T09:55:39;68.80;;;32.55;;
51732;SDS011;39139;53.144;6.244;2023-02-23T09:58:11;67.72;;;35.20;;
51732;SDS011;39139;53.144;6.244;2023-02-23T10:00:47;71.40;;;36.03;;
51732;SDS011;39139;53.144;6.244;2023-02-23T10:03:29;79.22;;;36.13;;
51732;SDS011;39139;53.144;6.244;2023-02-23T10:08:32;71.50;;;37.60;;
51732;SDS011;39139;53.144;6.244;2023-02-23T10:11:51;77.75;;;37.33;;
51732;SDS011;39139;53.144;6.244;2023-02-23T10:22:12;88.10;;;39.90;;
51732;SDS011;39139;53.144;6.244;2023-02-23T10:24:41;84.13;;;40.55;;
51732;SDS011;39139;53.144;6.244;2023-02-23T10:27:17;82.43;;;35.95;;
51732;SDS011;39139;53.144;6.244;2023-02-23T10:29:46;77.15;;;38.22;;
51732;SDS011;39139;53.144;6.244;2023-02-23T10:35:10;86.00;;;40.70;;
51732;SDS011;39139;53.144;6.244;2023-02-23T10:37:38;83.53;;;37.08;;
51732;SDS011;39139;53.144;6.244;2023-02-23T10:40:04;96.20;;;42.60;;
51732;SDS011;39139;53.144;6.244;2023-02-23T10:42:31;105.50;;;45.47;;
51732;SDS011;39139;53.144;6.244;2023-02-23T10:44:58;108.10;;;42.38;;
51732;SDS011;39139;53.144;6.244;2023-02-23T10:47:28;105.18;;;39.05;;
51732;SDS011;39139;53.144;6.244;2023-02-23T10:49:57;112.15;;;44.45;;
51732;SDS011;39139;53.144;6.244;2023-02-23T10:52:40;110.35;;;41.83;;
51732;SDS011;39139;53.144;6.244;2023-02-23T10:55:26;97.18;;;35.35;;
51732;SDS011;39139;53.144;6.244;2023-02-23T10:58:00;99.45;;;39.15;;
51732;SDS011;39139;53.144;6.244;2023-02-23T11:00:58;90.82;;;33.47;;
51732;SDS011;39139;53.144;6.244;2023-02-23T11:06:27;101.70;;;37.50;;
51732;SDS011;39139;53.144;6.244;2023-02-23T11:09:14;101.68;;;37.00;;
51732;SDS011;39139;53.144;6.244;2023-02-23T11:11:55;96.68;;;34.65;;
51732;SDS011;39139;53.144;6.244;2023-02-23T11:14:27;88.38;;;34.17;;
51732;SDS011;39139;53.144;6.244;2023-02-23T11:16:54;99.15;;;35.75;;
51732;SDS011;39139;53.144;6.244;2023-02-23T11:19:34;79.10;;;30.30;;
51732;SDS011;39139;53.144;6.244;2023-02-23T11:22:02;71.57;;;28.17;;
51732;SDS011;39139;53.144;6.244;2023-02-23T11:24:33;71.38;;;25.02;;
51732;SDS011;39139;53.144;6.244;2023-02-23T11:27:02;71.38;;;27.88;;
51732;SDS011;39139;53.144;6.244;2023-02-23T11:29:32;76.65;;;28.10;;
51732;SDS011;39139;53.144;6.244;2023-02-23T11:32:20;71.78;;;27.35;;
51732;SDS011;39139;53.144;6.244;2023-02-23T11:35:12;75.03;;;30.15;;
51732;SDS011;39139;53.144;6.244;2023-02-23T11:37:40;87.43;;;30.52;;
51732;SDS011;39139;53.144;6.244;2023-02-23T11:42:56;91.07;;;35.00;;
51732;SDS011;39139;53.144;6.244;2023-02-23T11:45:33;94.90;;;34.83;;
51732;SDS011;39139;53.144;6.244;2023-02-23T11:48:20;104.00;;;40.22;;
51732;SDS011;39139;53.144;6.244;2023-02-23T11:51:07;108.60;;;41.28;;
51732;SDS011;39139;53.144;6.244;2023-02-23T11:53:38;101.53;;;37.30;;
51732;SDS011;39139;53.144;6.244;2023-02-23T11:56:07;108.13;;;41.58;;
51732;SDS011;39139;53.144;6.244;2023-02-23T11:58:46;104.45;;;38.20;;
51732;SDS011;39139;53.144;6.244;2023-02-23T12:01:15;105.93;;;37.95;;
51732;SDS011;39139;53.144;6.244;2023-02-23T12:11:53;122.10;;;42.83;;
51732;SDS011;39139;53.144;6.244;2023-02-23T12:17:01;125.93;;;41.67;;
51732;SDS011;39139;53.144;6.244;2023-02-23T12:19:33;136.00;;;47.78;;
51732;SDS011;39139;53.144;6.244;2023-02-23T12:22:05;134.70;;;44.20;;
51732;SDS011;39139;53.144;6.244;2023-02-23T12:24:54;133.68;;;43.95;;
51732;SDS011;39139;53.144;6.244;2023-02-23T12:27:33;132.57;;;44.17;;
51732;SDS011;39139;53.144;6.244;2023-02-23T12:30:15;119.60;;;42.67;;
51732;SDS011;39139;53.144;6.244;2023-02-23T12:32:46;139.75;;;49.22;;
51732;SDS011;39139;53.144;6.244;2023-02-23T12:35:26;131.32;;;46.20;;
51732;SDS011;39139;53.144;6.244;2023-02-23T12:37:59;132.85;;;47.60;;
51732;SDS011;39139;53.144;6.244;2023-02-23T12:40:31;122.70;;;42.25;;
51732;SDS011;39139;53.144;6.244;2023-02-23T12:50:51;22.45;;;8.90;;
51732;SDS011;39139;53.144;6.244;2023-02-23T12:59:09;16.48;;;3.45;;
51732;SDS011;39139;53.144;6.244;2023-02-23T13:07:21;16.33;;;4.07;;
51732;SDS011;39139;53.144;6.244;2023-02-23T13:18:23;31.10;;;6.00;;
51732;SDS011;39139;53.144;6.244;2023-02-23T13:20:59;34.05;;;7.00;;
51732;SDS011;39139;53.144;6.244;2023-02-23T13:23:59;39.95;;;8.13;;
51732;SDS011;39139;53.144;6.244;2023-02-23T13:26:32;44.03;;;9.23;;
51732;SDS011;39139;53.144;6.244;2023-02-23T13:29:21;47.03;;;8.13;;
51732;SDS011;39139;53.144;6.244;2023-02-23T13:31:59;55.88;;;9.32;;
51732;SDS011;39139;53.144;6.244;2023-02-23T13:34:27;45.85;;;7.43;;
51732;SDS011;39139;53.144;6.244;2023-02-23T13:36:55;45.83;;;9.45;;
51732;SDS011;39139;53.144;6.244;2023-02-23T13:39:28;56.50;;;8.73;;
51732;SDS011;39139;53.144;6.244;2023-02-23T13:50:27;49.50;;;9.82;;
51732;SDS011;39139;53.144;6.244;2023-02-23T13:53:03;44.20;;;7.53;;
51732;SDS011;39139;53.144;6.244;2023-02-23T13:55:32;48.08;;;8.27;;
51732;SDS011;39139;53.144;6.244;2023-02-23T13:58:44;57.55;;;8.38;;
51732;SDS011;39139;53.144;6.244;2023-02-23T14:01:02;56.42;;;7.75;;
51732;SDS011;39139;53.144;6.244;2023-02-23T14:03:39;49.30;;;8.52;;
51732;SDS011;39139;53.144;6.244;2023-02-23T14:06:11;51.70;;;9.05;;
51732;SDS011;39139;53.144;6.244;2023-02-23T14:08:38;49.85;;;8.07;;
51732;SDS011;39139;53.144;6.244;2023-02-23T14:11:07;53.95;;;7.75;;
51732;SDS011;39139;53.144;6.244;2023-02-23T14:13:33;38.55;;;7.90;;
51732;SDS011;39139;53.144;6.244;2023-02-23T14:16:09;48.03;;;8.55;;
51732;SDS011;39139;53.144;6.244;2023-02-23T14:21:29;44.22;;;6.85;;
51732;SDS011;39139;53.144;6.244;2023-02-23T14:24:21;40.88;;;5.95;;
51732;SDS011;39139;53.144;6.244;2023-02-23T14:29:35;48.38;;;6.43;;
51732;SDS011;39139;53.144;6.244;2023-02-23T14:34:49;41.10;;;6.50;;
51732;SDS011;39139;53.144;6.244;2023-02-23T14:39:55;32.30;;;7.50;;
51732;SDS011;39139;53.144;6.244;2023-02-23T14:42:38;41.88;;;6.75;;
51732;SDS011;39139;53.144;6.244;2023-02-23T14:45:18;39.60;;;6.47;;
51732;SDS011;39139;53.144;6.244;2023-02-23T14:47:51;38.25;;;6.85;;
51732;SDS011;39139;53.144;6.244;2023-02-23T14:50:27;39.10;;;6.25;;
51732;SDS011;39139;53.144;6.244;2023-02-23T14:52:56;39.35;;;7.78;;
51732;SDS011;39139;53.144;6.244;2023-02-23T14:57:49;38.30;;;6.40;;
51732;SDS011;39139;53.144;6.244;2023-02-23T15:00:24;35.28;;;4.70;;
51732;SDS011;39139;53.144;6.244;2023-02-23T15:03:10;40.85;;;6.65;;
51732;SDS011;39139;53.144;6.244;2023-02-23T15:05:42;40.40;;;5.32;;
51732;SDS011;39139;53.144;6.244;2023-02-23T15:08:11;29.08;;;5.03;;
51732;SDS011;39139;53.144;6.244;2023-02-23T15:10:43;27.80;;;5.10;;
51732;SDS011;39139;53.144;6.244;2023-02-23T15:16:07;32.00;;;5.35;;
51732;SDS011;39139;53.144;6.244;2023-02-23T15:18:39;30.75;;;5.13;;
51732;SDS011;39139;53.144;6.244;2023-02-23T15:21:25;29.15;;;4.93;;
51732;SDS011;39139;53.144;6.244;2023-02-23T15:23:53;30.55;;;5.25;;
51732;SDS011;39139;53.144;6.244;2023-02-23T15:26:29;31.45;;;4.90;;
51732;SDS011;39139;53.144;6.244;2023-02-23T15:29:10;30.88;;;5.30;;
51732;SDS011;39139;53.144;6.244;2023-02-23T15:31:45;32.70;;;4.63;;
51732;SDS011;39139;53.144;6.244;2023-02-23T15:34:16;29.60;;;4.93;;
51732;SDS011;39139;53.144;6.244;2023-02-23T15:36:57;25.02;;;4.55;;
51732;SDS011;39139;53.144;6.244;2023-02-23T15:39:36;29.67;;;4.82;;
51732;SDS011;39139;53.144;6.244;2023-02-23T15:42:04;31.33;;;5.45;;
51732;SDS011;39139;53.144;6.244;2023-02-23T15:44:34;28.10;;;4.13;;
51732;SDS011;39139;53.144;6.244;2023-02-23T15:47:03;25.52;;;4.55;;
51732;SDS011;39139;53.144;6.244;2023-02-23T15:49:31;24.40;;;4.70;;
51732;SDS011;39139;53.144;6.244;2023-02-23T15:52:02;23.48;;;4.05;;
51732;SDS011;39139;53.144;6.244;2023-02-23T15:57:01;16.13;;;3.95;;
51732;SDS011;39139;53.144;6.244;2023-02-23T15:59:32;26.27;;;4.22;;
51732;SDS011;39139;53.144;6.244;2023-02-23T16:02:01;26.13;;;4.57;;
51732;SDS011;39139;53.144;6.244;2023-02-23T16:04:38;20.80;;;2.85;;
51732;SDS011;39139;53.144;6.244;2023-02-23T16:07:20;24.50;;;4.35;;
51732;SDS011;39139;53.144;6.244;2023-02-23T16:10:03;30.23;;;4.32;;
51732;SDS011;39139;53.144;6.244;2023-02-23T16:12:42;20.58;;;3.33;;
51732;SDS011;39139;53.144;6.244;2023-02-23T16:17:51;21.88;;;3.17;;
51732;SDS011;39139;53.144;6.244;2023-02-23T16:20:32;26.70;;;3.53;;
51732;SDS011;39139;53.144;6.244;2023-02-23T16:23:05;16.52;;;4.03;;
51732;SDS011;39139;53.144;6.244;2023-02-23T16:25:39;15.82;;;2.92;;
51732;SDS011;39139;53.144;6.244;2023-02-23T16:28:07;19.27;;;3.17;;
51732;SDS011;39139;53.144;6.244;2023-02-23T16:35:45;23.27;;;3.35;;
51732;SDS011;39139;53.144;6.244;2023-02-23T16:38:24;22.58;;;2.92;;
51732;SDS011;39139;53.144;6.244;2023-02-23T16:40:50;18.63;;;3.13;;
51732;SDS011;39139;53.144;6.244;2023-02-23T16:43:16;29.83;;;4.07;;
51732;SDS011;39139;53.144;6.244;2023-02-23T16:45:41;21.67;;;3.67;;
51732;SDS011;39139;53.144;6.244;2023-02-23T16:48:12;23.40;;;3.38;;
51732;SDS011;39139;53.144;6.244;2023-02-23T16:50:38;19.02;;;3.45;;
51732;SDS011;39139;53.144;6.244;2023-02-23T16:53:05;23.85;;;3.58;;
51732;SDS011;39139;53.144;6.244;2023-02-23T16:55:38;25.98;;;3.60;;
51732;SDS011;39139;53.144;6.244;2023-02-23T16:58:08;19.33;;;3.83;;
51732;SDS011;39139;53.144;6.244;2023-02-23T17:00:39;28.40;;;3.45;;
51732;SDS011;39139;53.144;6.244;2023-02-23T17:03:05;20.52;;;3.00;;
51732;SDS011;39139;53.144;6.244;2023-02-23T17:05:37;21.15;;;2.90;;
51732;SDS011;39139;53.144;6.244;2023-02-23T17:08:03;19.55;;;3.33;;